CYZX

CFB Greenwood Airport

Greenwood, Nova Scotia, Canada
TAF CYZX 162330Z 1700/1724 29010KT P6SM FEW250 BECMG 1701/1703 25005KT FM170700 VRB03KT P6SM SKC TEMPO 1708/1712 2SM BR SCT005 PROB30 1708/1712 3/4SM BR BKN005 FM171600 20010KT P6SM SCT050 FM171900 20010G20KT P6SM BKN040 TEMPO 1719/1724 P6SM -SHRA RMK NXT FCST BY 170600Z
Issued Valid From Valid To
Jul-16 @ 23:30 UTC
(43 minutes ago)
Jul-17 @ 00:00 UTC
(13 minutes ago)
Jul-18 @ 00:00 UTC
(in 24 hours)
Jul-17 @ 00:00 to Jul-17 @ 01:00
TAF CYZX 162330Z 1700/1724 29010KT P6SM FEW250
Wind Visibility Clouds
290° at 10 knots Greater than 6 miles
  • Few at 25,000' AGL
Becoming Jul-17 @ 01:00 to Jul-17 @ 07:00
BECMG 1701/1703 25005KT
Wind Visibility Clouds
250° at 5 knots Greater than 6 miles
  • Few at 25,000' AGL
From Jul-17 @ 07:00 to Jul-17 @ 16:00
FM170700 VRB03KT P6SM SKC
Wind Visibility Clouds
Variable at 3 knots Greater than 6 miles
  • Clear skies
Temporary Jul-17 @ 08:00 to Jul-17 @ 12:00
TEMPO 1708/1712 2SM BR SCT005
Visibility Clouds Conditions
2 miles
  • Scattered at 500' AGL
  • Mist
Probable  (Probability 30%) Jul-17 @ 08:00 to Jul-17 @ 12:00
PROB30 1708/1712 3/4SM BR BKN005
Visibility Clouds Conditions
3/4 miles
  • Broken at 500' AGL
  • Mist
From Jul-17 @ 16:00 to Jul-17 @ 19:00
FM171600 20010KT P6SM SCT050
Wind Visibility Clouds
200° at 10 knots Greater than 6 miles
  • Scattered at 5,000' AGL
From Jul-17 @ 19:00 to Jul-18 @ 00:00
FM171900 20010G20KT P6SM BKN040
Wind Visibility Clouds
200° at 10 knots
 Gusting to 20 knots
Greater than 6 miles
  • Broken at 4,000' AGL
Temporary Jul-17 @ 19:00 to Jul-18 @ 00:00
TEMPO 1719/1724 P6SM -SHRA RMK NXT FCST BY 170600Z
Visibility Conditions
Greater than 6 miles
  • Light Rain
TAF CYZX 162330Z 1700/1724 29010KT P6SM FEW250 BECMG 1701/1703 25005KT FM170700 VRB03KT P6SM SKC TEMPO 1708/1712 2SM BR SCT005 PROB30 1708/1712 3/4SM BR BKN005 FM171600 20010KT P6SM SCT050 FM171900 20010G20KT P6SM BKN040 TEMPO 1719/1724 P6SM -SHRA RMK NXT FCST BY 170600Z
Issued Jul-16 @ 23:30 UTC
(43 minutes ago)
Valid From Jul-17 @ 00:00 UTC
(13 minutes ago)
Valid To Jul-18 @ 00:00 UTC
(in 24 hours)
Jul-17 @ 00:00 - Jul-17 @ 01:00
Wind Visibility
290° at 10 knots Greater than 6 miles
Clouds
  • Few at 25,000' AGL
Becoming Jul-17 @ 01:00 - Jul-17 @ 07:00
Wind Visibility
250° at 5 knots Greater than 6 miles
Clouds
  • Few at 25,000' AGL
From Jul-17 @ 07:00 - Jul-17 @ 16:00
Wind Visibility
Variable at 3 knots Greater than 6 miles
Clouds
  • Clear skies
Temporary Jul-17 @ 08:00 - Jul-17 @ 12:00
Clouds
  • Scattered at 500' AGL
Conditions
  • Mist
Probability 30% Probable Jul-17 @ 08:00 - Jul-17 @ 12:00
Clouds
  • Broken at 500' AGL
Conditions
  • Mist
From Jul-17 @ 16:00 - Jul-17 @ 19:00
Wind Visibility
200° at 10 knots Greater than 6 miles
Clouds
  • Scattered at 5,000' AGL
From Jul-17 @ 19:00 - Jul-18 @ 00:00
Wind Visibility
200° at 10 knots
 Gusting to 20 knots
Greater than 6 miles
Clouds
  • Broken at 4,000' AGL
Temporary Jul-17 @ 19:00 - Jul-18 @ 00:00
Conditions
  • Light Rain